Edwardsville, Pennsylvania
Current Conditions -  °F | °C
As of 6:54 PM on Wednesday 22 Oct 2014 (Local Time) from KAVP Reporting Station
Light Rain Light Rain  
Wind Chill: 52°   Ceiling: 1600
Heat Index: 52°   Visibility: 10mi
Dew Point: 45°   Wind: 14mph
Humidity: 77%   Direction: 360°N
Pressure: 29.96"   Gusts: 22mph
Location:  41.2768°N, 75.8997°W
Report Text: KAVP 222254Z 36012G19KT 10SM -RA OVC016 11/07 A2996 RMK AO2 RAE2157B13 SLP145 P0001 T01110072
Loading
Personal Weather Stations






























Interactive Weather Map
Tropical Storm Tracking
New forecast layout! Learn more

10-Day Weather Forecast

Advertisements
Track Severe Weather on mobile